Time;durP1;ratioP1;P1;durP2;ratioP2;P2;SDS_P1;SDS_P2;PMS_P1;PMS_P2;Temp;Humidity;BMP_temperature;BMP_pressure;BME280_temperature;BME280_humidity;BME280_pressure;Samples;Min_cycle;Max_cycle;Signal;HPM_P1;HPM_P2
2022/12/14 00:02:57;;;;;;;29.63;10.67;;;;;;;;;;6219404;22;20594;-90
2022/12/14 00:06:11;;;;;;;27.40;10.73;;;;;;;;;;6218291;23;20210;-92
2022/12/14 00:09:20;;;;;;;26.67;10.60;;;;;;;;;;6220399;23;20163;-89
2022/12/14 00:12:33;;;;;;;28.57;10.97;;;;;;;;;;6220711;22;20176;-87
2022/12/14 09:59:39;;;;;;;29.47;10.40;;;;;;;;;;6226911;22;20219;-90
2022/12/14 10:02:52;;;;;;;32.07;10.37;;;;;;;;;;6215558;23;20166;-90
2022/12/14 10:06:03;;;;;;;28.33;9.60;;;;;;;;;;6217458;23;20222;-89
2022/12/14 10:09:13;;;;;;;26.00;10.33;;;;;;;;;;6216170;22;20218;-90
2022/12/14 10:12:27;;;;;;;38.93;12.20;;;;;;;;;;6215734;22;20167;-90
2022/12/14 10:15:40;;;;;;;24.07;10.67;;;;;;;;;;6233443;22;20180;-90
2022/12/14 10:19:14;;;;;;;27.27;10.63;;;;;;;;;;6216143;23;20171;-89
2022/12/14 10:22:20;;;;;;;33.37;11.77;;;;;;;;;;6197510;23;20175;-91
2022/12/14 10:25:27;;;;;;;30.87;11.47;;;;;;;;;;6215794;22;20190;-91
2022/12/14 10:28:38;;;;;;;31.90;10.83;;;;;;;;;;6216913;23;20175;-89
2022/12/14 10:31:50;;;;;;;46.10;14.47;;;;;;;;;;6215426;23;20603;-90
2022/12/14 10:34:57;;;;;;;70.77;18.77;;;;;;;;;;6218472;23;20147;-90
2022/12/14 10:38:06;;;;;;;61.43;17.73;;;;;;;;;;6215334;22;20626;-90
2022/12/14 10:41:15;;;;;;;30.20;12.07;;;;;;;;;;6215806;22;20167;-89
2022/12/14 10:44:23;;;;;;;32.33;11.80;;;;;;;;;;6215865;23;20218;-90
2022/12/14 10:47:34;;;;;;;34.40;13.37;;;;;;;;;;6214547;23;20179;-90
2022/12/14 10:50:48;;;;;;;29.33;10.30;;;;;;;;;;6216380;22;20183;-90
2022/12/14 10:53:55;;;;;;;31.23;11.80;;;;;;;;;;6215001;22;20167;-91
2022/12/14 10:57:02;;;;;;;29.00;11.67;;;;;;;;;;6215958;22;20168;-92
2022/12/14 11:00:12;;;;;;;27.33;10.90;;;;;;;;;;6213783;23;20230;-90
2022/12/14 11:03:20;;;;;;;35.77;12.10;;;;;;;;;;6213873;22;20163;-91
2022/12/14 11:06:28;;;;;;;30.07;11.43;;;;;;;;;;6214951;22;20222;-90
2022/12/14 11:09:33;;;;;;;45.87;11.77;;;;;;;;;;6218299;22;20150;-91
2022/12/14 11:12:40;;;;;;;55.37;12.07;;;;;;;;;;6219424;23;20199;-91
2022/12/14 11:15:47;;;;;;;29.57;10.60;;;;;;;;;;6218378;22;20171;-90
2022/12/14 11:19:17;;;;;;;27.50;10.33;;;;;;;;;;6219278;22;20163;-92
2022/12/14 11:22:23;;;;;;;28.20;9.07;;;;;;;;;;6218156;23;20210;-89
2022/12/14 11:25:34;;;;;;;49.30;10.73;;;;;;;;;;6219296;22;20167;-89
2022/12/14 11:28:41;;;;;;;36.20;11.10;;;;;;;;;;6219792;22;20179;-91
2022/12/14 11:31:47;;;;;;;27.80;11.90;;;;;;;;;;6216063;23;20622;-91
2022/12/14 11:35:05;;;;;;;37.07;10.87;;;;;;;;;;6217277;22;20200;-89
2022/12/14 11:41:36;;;;;;;39.03;9.60;;;;;;;;;;6234407;22;20172;-91
2022/12/14 11:44:41;;;;;;;35.70;9.40;;;;;;;;;;6234048;22;20212;-91
2022/12/14 11:47:48;;;;;;;28.47;10.33;;;;;;;;;;6233042;22;20188;-92
2022/12/14 11:50:55;;;;;;;34.37;11.17;;;;;;;;;;6216215;22;20171;-91
2022/12/14 11:54:02;;;;;;;34.90;9.57;;;;;;;;;;6216426;23;20151;-90
2022/12/14 11:57:10;;;;;;;37.57;10.70;;;;;;;;;;6219263;22;20172;-92
2022/12/14 12:00:24;;;;;;;40.20;9.43;;;;;;;;;;6218020;23;20204;-93
2022/12/14 12:03:31;;;;;;;41.13;9.67;;;;;;;;;;6219295;22;20201;-91
2022/12/14 12:06:39;;;;;;;39.20;9.93;;;;;;;;;;6217572;22;20210;-90
2022/12/14 12:09:44;;;;;;;26.70;9.13;;;;;;;;;;6217304;23;20162;-90
2022/12/14 12:12:52;;;;;;;26.00;9.13;;;;;;;;;;6217175;22;20188;-91
2022/12/14 12:16:00;;;;;;;31.83;10.73;;;;;;;;;;6216303;22;20204;-91
2022/12/14 12:19:10;;;;;;;41.67;9.00;;;;;;;;;;6215765;22;20172;-91
2022/12/14 12:22:17;;;;;;;29.63;9.70;;;;;;;;;;6214927;22;20216;-90
2022/12/14 12:25:23;;;;;;;37.60;9.80;;;;;;;;;;6218018;23;20207;-88
2022/12/14 12:28:30;;;;;;;28.23;9.23;;;;;;;;;;6233290;22;20269;-91
2022/12/14 12:31:39;;;;;;;22.30;8.83;;;;;;;;;;6214574;23;20167;-91
2022/12/14 12:35:10;;;;;;;27.10;10.07;;;;;;;;;;6214542;22;20167;-91
2022/12/14 12:38:19;;;;;;;30.57;11.00;;;;;;;;;;6216906;22;20171;-91
2022/12/14 12:41:29;;;;;;;31.30;11.80;;;;;;;;;;6215277;23;20163;-91
2022/12/14 12:44:40;;;;;;;29.87;12.73;;;;;;;;;;6214832;23;20168;-90
2022/12/14 12:47:48;;;;;;;34.13;13.17;;;;;;;;;;6212568;23;20191;-90
2022/12/14 12:50:56;;;;;;;30.17;11.47;;;;;;;;;;6212190;22;20155;-90
2022/12/14 12:54:06;;;;;;;74.53;16.47;;;;;;;;;;6213225;22;20146;-92
2022/12/14 12:57:12;;;;;;;30.90;11.73;;;;;;;;;;6215513;23;20167;-90
2022/12/14 13:00:19;;;;;;;31.70;12.43;;;;;;;;;;6215754;23;20154;-88
2022/12/14 13:03:26;;;;;;;34.63;12.20;;;;;;;;;;6215019;22;20183;-91
2022/12/14 13:06:33;;;;;;;28.30;11.90;;;;;;;;;;6213604;22;20232;-92
2022/12/14 13:09:41;;;;;;;30.47;12.87;;;;;;;;;;6211610;23;20211;-91
2022/12/14 13:12:48;;;;;;;31.50;11.20;;;;;;;;;;6210831;23;20501;-89
2022/12/14 13:15:54;;;;;;;27.73;11.53;;;;;;;;;;6211413;22;20226;-94
2022/12/14 13:19:02;;;;;;;28.10;12.40;;;;;;;;;;6233624;22;20155;-91
2022/12/14 13:22:49;;;;;;;31.33;13.13;;;;;;;;;;6214310;22;20166;-91
2022/12/14 13:26:09;;;;;;;27.13;11.50;;;;;;;;;;6215433;23;20170;-91
2022/12/14 13:29:18;;;;;;;31.40;13.10;;;;;;;;;;6215167;22;20208;-90
2022/12/14 13:32:33;;;;;;;26.33;11.30;;;;;;;;;;6215208;22;20220;-90
2022/12/14 13:35:45;;;;;;;31.57;12.10;;;;;;;;;;6215810;23;20164;-91
2022/12/14 13:39:03;;;;;;;40.97;15.07;;;;;;;;;;6216108;23;20171;-91
2022/12/14 13:42:14;;;;;;;28.00;11.63;;;;;;;;;;6214129;22;20179;-91
2022/12/14 13:45:22;;;;;;;25.77;10.93;;;;;;;;;;6212286;22;20236;-92
2022/12/14 13:48:29;;;;;;;41.07;15.43;;;;;;;;;;6215144;22;20174;-90
2022/12/14 13:51:38;;;;;;;45.27;13.47;;;;;;;;;;6214924;23;20238;-90
2022/12/14 13:54:47;;;;;;;39.20;14.80;;;;;;;;;;6212870;23;20168;-90
2022/12/14 13:58:11;;;;;;;55.80;15.77;;;;;;;;;;6214285;22;20215;-91
2022/12/14 14:05:35;;;;;;;41.43;15.43;;;;;;;;;;6215703;23;20166;-90
2022/12/14 14:08:41;;;;;;;42.03;13.67;;;;;;;;;;6217153;23;20198;-91
2022/12/14 14:11:57;;;;;;;57.43;20.50;;;;;;;;;;6216404;23;20154;-90
2022/12/14 14:18:37;;;;;;;41.70;15.70;;;;;;;;;;6232460;22;20191;-91
2022/12/14 14:21:43;;;;;;;39.37;9.50;;;;;;;;;;6213525;22;20246;-92
2022/12/14 14:24:54;;;;;;;36.27;13.17;;;;;;;;;;6213071;23;20159;-92
2022/12/14 14:28:00;;;;;;;39.70;13.80;;;;;;;;;;6214346;23;20178;-91
2022/12/14 14:31:07;;;;;;;30.37;12.87;;;;;;;;;;6215371;23;20182;-90
2022/12/14 14:34:18;;;;;;;33.17;12.87;;;;;;;;;;6214051;22;20171;-92
2022/12/14 14:37:25;;;;;;;30.47;11.67;;;;;;;;;;6213375;22;20213;-91
2022/12/14 14:40:32;;;;;;;33.20;12.80;;;;;;;;;;6231800;22;20172;-92
2022/12/14 14:43:40;;;;;;;37.30;12.47;;;;;;;;;;6221703;22;20224;-90
2022/12/14 14:46:49;;;;;;;34.60;12.67;;;;;;;;;;6219173;22;20224;-92
2022/12/14 14:49:56;;;;;;;33.57;12.83;;;;;;;;;;6215959;22;20175;-93
2022/12/14 14:53:12;;;;;;;32.77;13.13;;;;;;;;;;6215256;22;20247;-93
2022/12/14 14:56:38;;;;;;;36.27;12.83;;;;;;;;;;6216463;23;20167;-91
2022/12/14 14:59:45;;;;;;;31.10;12.23;;;;;;;;;;6217720;22;20179;-91
2022/12/14 15:02:54;;;;;;;34.90;14.40;;;;;;;;;;6216308;22;20167;-91
2022/12/14 15:05:59;;;;;;;35.53;13.73;;;;;;;;;;6214326;22;20170;-91
2022/12/14 15:09:10;;;;;;;33.10;13.43;;;;;;;;;;6217660;22;20202;-91
2022/12/14 15:12:22;;;;;;;42.43;14.83;;;;;;;;;;6215526;23;20214;-90
2022/12/14 15:15:33;;;;;;;44.37;17.40;;;;;;;;;;6215571;23;20167;-93
2022/12/14 15:18:40;;;;;;;47.23;17.17;;;;;;;;;;6216973;23;20175;-88
2022/12/14 15:21:46;;;;;;;64.17;24.63;;;;;;;;;;6215709;22;20753;-90
2022/12/14 15:24:53;;;;;;;39.97;16.27;;;;;;;;;;6217334;22;20167;-94
2022/12/14 15:28:07;;;;;;;40.87;16.47;;;;;;;;;;6217789;23;20186;-91
2022/12/14 15:31:13;;;;;;;34.30;13.80;;;;;;;;;;6214593;23;20182;-90
2022/12/14 15:34:21;;;;;;;49.53;16.13;;;;;;;;;;6216636;23;20163;-91
2022/12/14 15:37:28;;;;;;;39.13;15.83;;;;;;;;;;6213290;22;20171;-91
2022/12/14 15:40:33;;;;;;;37.53;15.03;;;;;;;;;;6214374;23;20190;-92
2022/12/14 15:43:43;;;;;;;42.73;16.70;;;;;;;;;;6215287;22;20611;-90
2022/12/14 15:46:54;;;;;;;45.30;16.87;;;;;;;;;;6212949;23;20195;-90
2022/12/14 15:50:14;;;;;;;40.10;17.60;;;;;;;;;;6217441;23;20218;-91
2022/12/14 15:53:25;;;;;;;43.87;16.93;;;;;;;;;;6215571;23;20213;-89
2022/12/14 15:56:32;;;;;;;41.63;16.63;;;;;;;;;;6215638;23;20211;-91
2022/12/14 15:59:39;;;;;;;42.67;16.50;;;;;;;;;;6216615;23;20247;-92
2022/12/14 16:06:05;;;;;;;39.43;15.33;;;;;;;;;;6217618;23;20168;-91
2022/12/14 16:09:20;;;;;;;36.23;15.87;;;;;;;;;;6216535;23;20183;-89
2022/12/14 16:12:28;;;;;;;33.73;14.27;;;;;;;;;;6215594;23;20159;-90
2022/12/14 16:15:33;;;;;;;44.67;18.37;;;;;;;;;;6215199;22;20230;-90
2022/12/14 16:18:40;;;;;;;40.77;16.43;;;;;;;;;;6213737;23;20167;-91
2022/12/14 16:21:48;;;;;;;39.73;16.67;;;;;;;;;;6214691;23;20167;-89
2022/12/14 16:25:07;;;;;;;53.20;18.33;;;;;;;;;;6217581;22;20191;-90
2022/12/14 16:28:31;;;;;;;41.67;16.90;;;;;;;;;;6222253;23;20665;-89
2022/12/14 16:31:39;;;;;;;43.23;18.20;;;;;;;;;;6222942;22;20456;-89
2022/12/14 16:34:49;;;;;;;45.63;20.20;;;;;;;;;;6222962;23;20190;-89
2022/12/14 16:37:55;;;;;;;41.17;17.70;;;;;;;;;;6218605;22;20256;-91
2022/12/14 16:41:05;;;;;;;45.80;18.47;;;;;;;;;;6212847;23;20202;-90
2022/12/14 16:44:19;;;;;;;49.00;19.27;;;;;;;;;;6212097;22;20170;-91
2022/12/14 16:47:27;;;;;;;45.87;19.53;;;;;;;;;;6213230;22;20251;-92
2022/12/14 16:50:32;;;;;;;53.13;19.60;;;;;;;;;;6211194;23;20168;-91
2022/12/14 16:53:40;;;;;;;56.53;20.60;;;;;;;;;;6212642;23;20171;-91
2022/12/14 16:56:47;;;;;;;45.83;19.17;;;;;;;;;;6214213;23;20163;-90
2022/12/14 16:59:57;;;;;;;55.93;21.57;;;;;;;;;;6214184;22;20198;-89
2022/12/14 17:03:03;;;;;;;59.03;21.60;;;;;;;;;;6212136;22;20178;-90
2022/12/14 17:06:08;;;;;;;52.43;20.10;;;;;;;;;;6212412;23;20618;-91
2022/12/14 17:09:18;;;;;;;53.43;21.37;;;;;;;;;;6211189;23;20202;-91
2022/12/14 17:12:26;;;;;;;47.87;20.43;;;;;;;;;;6212608;23;20171;-93
2022/12/14 17:15:33;;;;;;;53.47;21.03;;;;;;;;;;6213482;22;20174;-92
2022/12/14 17:18:39;;;;;;;49.07;20.57;;;;;;;;;;6210858;23;20174;-90
2022/12/14 17:21:45;;;;;;;48.00;19.77;;;;;;;;;;6214387;23;20167;-90
2022/12/14 17:24:50;;;;;;;49.03;21.37;;;;;;;;;;6213129;23;20339;-91
2022/12/14 17:27:57;;;;;;;44.03;19.63;;;;;;;;;;6213495;23;20186;-90
2022/12/14 17:31:03;;;;;;;51.03;20.37;;;;;;;;;;6212415;22;20171;-90
2022/12/14 17:34:10;;;;;;;63.30;23.57;;;;;;;;;;6213233;23;20210;-92
2022/12/14 17:37:16;;;;;;;63.30;24.80;;;;;;;;;;6216303;23;20148;-92
2022/12/14 17:40:22;;;;;;;55.90;21.23;;;;;;;;;;6214487;23;20167;-90
2022/12/14 17:43:29;;;;;;;68.03;25.07;;;;;;;;;;6213763;23;20151;-89
2022/12/14 17:46:34;;;;;;;57.00;22.30;;;;;;;;;;6215643;22;20190;-90
2022/12/14 17:49:41;;;;;;;64.83;24.00;;;;;;;;;;6216213;23;20281;-92
2022/12/14 17:52:46;;;;;;;65.70;24.83;;;;;;;;;;6213081;23;20239;-90
2022/12/14 17:55:52;;;;;;;65.27;23.47;;;;;;;;;;6214925;23;20190;-91
2022/12/14 17:58:58;;;;;;;59.10;23.97;;;;;;;;;;6212571;23;20243;-91
2022/12/14 18:02:03;;;;;;;61.73;22.37;;;;;;;;;;6213454;23;20259;-88
2022/12/14 18:05:15;;;;;;;61.63;23.70;;;;;;;;;;6231434;23;20167;-89
2022/12/14 18:08:20;;;;;;;55.90;22.10;;;;;;;;;;6215142;23;20190;-93
2022/12/14 18:11:27;;;;;;;94.17;30.43;;;;;;;;;;6215268;23;20238;-91
2022/12/14 18:14:34;;;;;;;71.30;24.47;;;;;;;;;;6212422;23;20175;-90
2022/12/14 18:21:54;;;;;;;59.87;23.23;;;;;;;;;;6232967;22;20179;-92
2022/12/14 18:24:59;;;;;;;54.80;21.87;;;;;;;;;;6216641;23;20212;-89
2022/12/14 18:28:05;;;;;;;61.57;23.43;;;;;;;;;;6214936;22;20249;-90
2022/12/14 18:31:20;;;;;;;61.03;22.83;;;;;;;;;;6216469;22;20195;-92
2022/12/14 18:34:26;;;;;;;57.03;22.43;;;;;;;;;;6215972;23;20199;-91
2022/12/14 18:37:31;;;;;;;62.87;24.03;;;;;;;;;;6214553;23;20212;-88
2022/12/14 18:40:37;;;;;;;62.10;24.80;;;;;;;;;;6215721;22;20194;-91
2022/12/14 18:43:42;;;;;;;62.03;23.40;;;;;;;;;;6213050;22;20162;-89
2022/12/14 18:46:49;;;;;;;70.77;27.67;;;;;;;;;;6214193;23;20167;-92
2022/12/14 18:49:56;;;;;;;72.80;28.93;;;;;;;;;;6214939;23;20529;-92
2022/12/14 18:53:01;;;;;;;65.10;26.80;;;;;;;;;;6213491;23;20236;-91
2022/12/14 18:56:08;;;;;;;71.20;27.33;;;;;;;;;;6212577;23;20170;-92
2022/12/14 18:59:13;;;;;;;70.00;27.57;;;;;;;;;;6212119;22;20695;-92
2022/12/14 19:02:20;;;;;;;72.30;28.43;;;;;;;;;;6212185;22;20502;-93
2022/12/14 19:05:52;;;;;;;72.70;26.83;;;;;;;;;;6214017;22;20160;-90
2022/12/14 19:08:58;;;;;;;77.23;30.87;;;;;;;;;;6231922;22;20238;-88
2022/12/14 19:12:03;;;;;;;80.63;29.77;;;;;;;;;;6214290;23;20167;-89
2022/12/14 19:15:10;;;;;;;81.63;31.43;;;;;;;;;;6215397;22;20158;-89
2022/12/14 19:18:17;;;;;;;81.07;30.77;;;;;;;;;;6210655;22;20693;-88
2022/12/14 19:21:25;;;;;;;79.30;31.10;;;;;;;;;;6211942;23;20613;-91
2022/12/14 19:24:30;;;;;;;83.47;31.87;;;;;;;;;;6209528;23;20187;-88
2022/12/14 19:27:35;;;;;;;94.17;34.13;;;;;;;;;;6210004;23;20176;-90
2022/12/14 19:30:42;;;;;;;67.50;26.73;;;;;;;;;;6213725;23;20163;-91
2022/12/14 19:33:53;;;;;;;73.93;29.13;;;;;;;;;;6212679;22;20306;-92
2022/12/14 19:36:58;;;;;;;66.17;27.10;;;;;;;;;;6215406;23;20167;-90
2022/12/14 19:40:03;;;;;;;71.70;29.27;;;;;;;;;;6215215;23;20229;-90
2022/12/14 19:43:08;;;;;;;69.53;29.03;;;;;;;;;;6214980;23;20171;-91
2022/12/14 19:46:16;;;;;;;74.90;29.03;;;;;;;;;;6219306;23;20186;-90
2022/12/14 19:49:23;;;;;;;72.53;29.57;;;;;;;;;;6215244;23;20242;-91
2022/12/14 19:52:28;;;;;;;74.53;29.80;;;;;;;;;;6215608;23;20158;-89
2022/12/14 19:55:34;;;;;;;72.13;27.67;;;;;;;;;;6216448;23;20179;-89
2022/12/14 19:58:40;;;;;;;68.07;27.10;;;;;;;;;;6217697;23;20191;-89
2022/12/14 20:01:47;;;;;;;71.30;29.60;;;;;;;;;;6218200;23;20170;-90
2022/12/14 20:04:55;;;;;;;75.77;30.37;;;;;;;;;;6220200;22;20170;-89
2022/12/14 20:08:01;;;;;;;73.00;28.73;;;;;;;;;;6234241;23;20201;-90
2022/12/14 20:11:09;;;;;;;72.27;29.13;;;;;;;;;;6218542;22;20187;-90
2022/12/14 20:14:15;;;;;;;68.57;28.33;;;;;;;;;;6217191;22;20163;-92
2022/12/14 20:17:20;;;;;;;68.63;28.47;;;;;;;;;;6218404;23;20222;-90
2022/12/14 20:20:29;;;;;;;71.43;29.20;;;;;;;;;;6217008;22;20323;-89
2022/12/14 20:23:36;;;;;;;78.03;30.47;;;;;;;;;;6218033;23;20191;-89
2022/12/14 20:26:42;;;;;;;75.97;30.07;;;;;;;;;;6215505;23;20251;-88
2022/12/14 20:29:47;;;;;;;74.43;29.53;;;;;;;;;;6217916;23;20649;-89
2022/12/14 20:32:54;;;;;;;73.67;29.53;;;;;;;;;;6217025;22;20183;-90
2022/12/14 20:36:02;;;;;;;80.17;31.83;;;;;;;;;;6235121;22;20546;-91
2022/12/14 20:39:08;;;;;;;79.57;29.43;;;;;;;;;;6216050;22;20187;-91
2022/12/14 20:42:14;;;;;;;81.47;31.07;;;;;;;;;;6216030;23;20192;-89
2022/12/14 20:45:19;;;;;;;79.30;29.97;;;;;;;;;;6217583;22;20175;-88
2022/12/14 20:48:27;;;;;;;72.80;29.13;;;;;;;;;;6193056;23;20187;-89
2022/12/14 20:51:37;;;;;;;79.70;30.10;;;;;;;;;;6220630;22;20217;-91
2022/12/14 20:54:43;;;;;;;85.43;31.23;;;;;;;;;;6221435;22;20213;-89
2022/12/14 20:57:48;;;;;;;89.00;31.93;;;;;;;;;;6216911;22;20182;-92
2022/12/14 21:00:54;;;;;;;78.30;29.50;;;;;;;;;;6217109;23;20194;-90
2022/12/14 21:04:01;;;;;;;81.30;31.30;;;;;;;;;;6215416;23;20166;-86
2022/12/14 21:07:09;;;;;;;79.07;31.40;;;;;;;;;;6216907;22;20171;-90
2022/12/14 21:10:14;;;;;;;85.27;31.67;;;;;;;;;;6216107;23;20242;-91
2022/12/14 21:13:19;;;;;;;79.40;30.47;;;;;;;;;;6214632;23;20167;-88
2022/12/14 21:16:24;;;;;;;70.47;27.87;;;;;;;;;;6233349;23;20218;-91
2022/12/14 21:19:30;;;;;;;79.27;30.00;;;;;;;;;;6215182;23;20191;-88
2022/12/14 21:22:38;;;;;;;72.50;29.97;;;;;;;;;;6219290;23;20167;-91
2022/12/14 21:25:43;;;;;;;85.87;30.27;;;;;;;;;;6215960;23;20195;-89
2022/12/14 21:28:48;;;;;;;81.13;31.30;;;;;;;;;;6217361;23;20167;-89
2022/12/14 21:31:57;;;;;;;85.07;33.27;;;;;;;;;;6215897;22;20167;-90
2022/12/14 21:35:06;;;;;;;84.53;31.67;;;;;;;;;;6234541;22;20210;-89
2022/12/14 21:38:14;;;;;;;84.03;32.90;;;;;;;;;;6216341;22;20166;-91
2022/12/14 21:44:38;;;;;;;79.33;31.37;;;;;;;;;;6189309;23;20191;-90
2022/12/14 21:47:44;;;;;;;73.63;30.60;;;;;;;;;;6214702;23;20204;-92
2022/12/14 21:50:49;;;;;;;78.87;32.83;;;;;;;;;;6215487;22;20199;-88
2022/12/14 21:54:00;;;;;;;77.53;30.23;;;;;;;;;;6217261;22;20162;-90
2022/12/14 22:00:28;;;;;;;77.37;30.63;;;;;;;;;;6216556;22;20172;-89
2022/12/14 22:03:34;;;;;;;76.37;30.13;;;;;;;;;;6216296;23;20623;-88
2022/12/14 22:06:39;;;;;;;71.20;29.90;;;;;;;;;;6217057;22;20148;-90
2022/12/14 22:09:48;;;;;;;73.03;29.97;;;;;;;;;;6215694;22;20198;-91
2022/12/14 22:12:53;;;;;;;75.87;31.23;;;;;;;;;;6216008;22;20203;-92
2022/12/14 22:15:59;;;;;;;78.87;31.50;;;;;;;;;;6216193;23;20167;-91
2022/12/14 22:19:05;;;;;;;80.53;31.27;;;;;;;;;;6214990;23;20159;-89
2022/12/14 22:22:13;;;;;;;77.37;31.50;;;;;;;;;;6214563;23;20203;-88
2022/12/14 22:25:20;;;;;;;80.90;31.17;;;;;;;;;;6214497;22;20214;-91
2022/12/14 22:28:29;;;;;;;77.53;31.30;;;;;;;;;;6215993;22;20208;-90
2022/12/14 22:31:34;;;;;;;74.87;31.40;;;;;;;;;;6215948;22;20738;-91
2022/12/14 22:34:40;;;;;;;78.53;31.43;;;;;;;;;;6214318;23;20167;-89
2022/12/14 22:37:46;;;;;;;81.63;32.07;;;;;;;;;;6216060;22;20155;-90
2022/12/14 22:40:53;;;;;;;72.57;29.37;;;;;;;;;;6215773;22;20214;-90
2022/12/14 22:44:06;;;;;;;76.60;30.43;;;;;;;;;;6216145;22;20167;-92
2022/12/14 22:47:11;;;;;;;78.57;32.23;;;;;;;;;;6215548;22;20489;-92
2022/12/14 22:50:17;;;;;;;74.37;29.90;;;;;;;;;;6214628;23;20198;-89
2022/12/14 22:53:22;;;;;;;71.37;29.90;;;;;;;;;;6214727;23;20208;-89
2022/12/14 22:56:31;;;;;;;67.90;28.33;;;;;;;;;;6216115;23;20172;-86
2022/12/14 22:59:37;;;;;;;79.67;29.73;;;;;;;;;;6214853;23;20178;-91
2022/12/14 23:02:45;;;;;;;75.13;27.77;;;;;;;;;;6215052;23;20542;-91
2022/12/14 23:05:50;;;;;;;65.53;27.57;;;;;;;;;;6216638;23;20167;-92
